sensor_id;sensor_type;location;lat;lon;timestamp;pressure;altitude;pressure_sealevel;temperature;humidity
31403;BME280;18039;52.188;21.024;2023-01-28T00:01:54;78466.44;;;-141.45;100.00
31403;BME280;18039;52.188;21.024;2023-01-28T00:04:21;78458.34;;;-141.45;100.00
31403;BME280;18039;52.188;21.024;2023-01-28T00:06:48;78462.38;;;-141.45;100.00
31403;BME280;18039;52.188;21.024;2023-01-28T00:09:15;78466.44;;;-141.45;100.00
31403;BME280;18039;52.188;21.024;2023-01-28T00:11:42;78458.34;;;-141.45;100.00
31403;BME280;18039;52.188;21.024;2023-01-28T00:14:10;78458.34;;;-141.45;100.00
31403;BME280;18039;52.188;21.024;2023-01-28T00:16:38;78454.28;;;-141.45;100.00
31403;BME280;18039;52.188;21.024;2023-01-28T00:19:05;78462.38;;;-141.45;100.00
31403;BME280;18039;52.188;21.024;2023-01-28T00:21:32;78458.34;;;-141.45;100.00
31403;BME280;18039;52.188;21.024;2023-01-28T00:23:59;78452.25;;;-141.45;100.00
31403;BME280;18039;52.188;21.024;2023-01-28T00:26:26;78454.28;;;-141.45;100.00
31403;BME280;18039;52.188;21.024;2023-01-28T00:28:53;78454.28;;;-141.45;100.00
31403;BME280;18039;52.188;21.024;2023-01-28T00:31:22;78454.28;;;-141.45;100.00
31403;BME280;18039;52.188;21.024;2023-01-28T00:33:51;78454.28;;;-141.45;100.00
31403;BME280;18039;52.188;21.024;2023-01-28T00:36:20;78454.28;;;-141.45;100.00
31403;BME280;18039;52.188;21.024;2023-01-28T00:38:57;78454.28;;;-141.45;100.00
31403;BME280;18039;52.188;21.024;2023-01-28T00:41:28;78458.34;;;-141.45;100.00
31403;BME280;18039;52.188;21.024;2023-01-28T00:43:57;78454.28;;;-141.45;100.00
31403;BME280;18039;52.188;21.024;2023-01-28T00:46:25;78450.22;;;-141.45;100.00
31403;BME280;18039;52.188;21.024;2023-01-28T00:48:53;78450.22;;;-141.45;100.00
31403;BME280;18039;52.188;21.024;2023-01-28T00:51:21;78454.28;;;-141.45;100.00
31403;BME280;18039;52.188;21.024;2023-01-28T00:53:48;78450.22;;;-141.45;100.00
31403;BME280;18039;52.188;21.024;2023-01-28T00:56:17;78450.22;;;-141.45;100.00
31403;BME280;18039;52.188;21.024;2023-01-28T00:58:45;78446.16;;;-141.45;100.00
31403;BME280;18039;52.188;21.024;2023-01-28T01:01:15;78446.16;;;-141.45;99.91
31403;BME280;18039;52.188;21.024;2023-01-28T01:03:43;78450.22;;;-141.45;99.98
31403;BME280;18039;52.188;21.024;2023-01-28T01:06:12;78446.16;;;-141.45;100.00
31403;BME280;18039;52.188;21.024;2023-01-28T01:08:39;78444.13;;;-141.45;100.00
31403;BME280;18039;52.188;21.024;2023-01-28T01:11:10;78440.06;;;-141.45;100.00
31403;BME280;18039;52.188;21.024;2023-01-28T01:13:37;78434.00;;;-141.45;100.00
31403;BME280;18039;52.188;21.024;2023-01-28T01:16:06;78429.94;;;-141.45;100.00
31403;BME280;18039;52.188;21.024;2023-01-28T01:18:34;78434.00;;;-141.45;99.82
31403;BME280;18039;52.188;21.024;2023-01-28T01:21:02;78434.00;;;-141.45;99.96
31403;BME280;18039;52.188;21.024;2023-01-28T01:23:33;78434.00;;;-141.45;99.82
31403;BME280;18039;52.188;21.024;2023-01-28T01:26:00;78429.94;;;-141.45;99.63
31403;BME280;18039;52.188;21.024;2023-01-28T01:28:28;78425.88;;;-141.45;99.60
31403;BME280;18039;52.188;21.024;2023-01-28T01:31:03;78421.81;;;-141.45;99.72
31403;BME280;18039;52.188;21.024;2023-01-28T01:33:32;78421.81;;;-141.45;99.79
31403;BME280;18039;52.188;21.024;2023-01-28T01:35:59;78417.78;;;-141.45;99.61
31403;BME280;18039;52.188;21.024;2023-01-28T01:38:27;78413.72;;;-141.45;99.85
31403;BME280;18039;52.188;21.024;2023-01-28T01:40:57;78409.66;;;-141.45;100.00
31403;BME280;18039;52.188;21.024;2023-01-28T01:46:22;78411.69;;;-141.45;100.00
31403;BME280;18039;52.188;21.024;2023-01-28T01:48:54;78405.59;;;-141.45;99.93
31403;BME280;18039;52.188;21.024;2023-01-28T01:51:28;78405.59;;;-141.45;99.85
31403;BME280;18039;52.188;21.024;2023-01-28T01:53:56;78409.66;;;-141.45;99.55
31403;BME280;18039;52.188;21.024;2023-01-28T01:56:29;78409.66;;;-141.45;99.65
31403;BME280;18039;52.188;21.024;2023-01-28T01:58:59;78413.72;;;-141.45;99.60
31403;BME280;18039;52.188;21.024;2023-01-28T02:01:29;78405.59;;;-141.45;99.71
31403;BME280;18039;52.188;21.024;2023-01-28T02:04:08;78407.63;;;-141.45;99.81
31403;BME280;18039;52.188;21.024;2023-01-28T02:06:38;78405.59;;;-141.45;99.71
31403;BME280;18039;52.188;21.024;2023-01-28T02:09:28;78405.59;;;-141.45;99.87
31403;BME280;18039;52.188;21.024;2023-01-28T02:11:59;78405.59;;;-141.45;99.69
31403;BME280;18039;52.188;21.024;2023-01-28T02:14:31;78413.72;;;-141.45;99.68
31403;BME280;18039;52.188;21.024;2023-01-28T02:17:00;78405.59;;;-141.45;99.52
31403;BME280;18039;52.188;21.024;2023-01-28T02:19:35;78419.78;;;-141.45;99.48
31403;BME280;18039;52.188;21.024;2023-01-28T02:27:32;78401.53;;;-141.45;99.66
31403;BME280;18039;52.188;21.024;2023-01-28T02:30:10;78399.50;;;-141.45;99.65
31403;BME280;18039;52.188;21.024;2023-01-28T02:33:04;78393.44;;;-141.45;99.50
31403;BME280;18039;52.188;21.024;2023-01-28T02:35:48;78397.50;;;-141.45;99.47
31403;BME280;18039;52.188;21.024;2023-01-28T02:38:28;78401.53;;;-141.45;99.57
31403;BME280;18039;52.188;21.024;2023-01-28T02:41:04;78401.53;;;-141.45;99.46
31403;BME280;18039;52.188;21.024;2023-01-28T02:43:43;78409.66;;;-141.45;99.92
31403;BME280;18039;52.188;21.024;2023-01-28T02:49:03;78405.59;;;-141.45;99.96
31403;BME280;18039;52.188;21.024;2023-01-28T02:51:48;78405.59;;;-141.45;100.00
31403;BME280;18039;52.188;21.024;2023-01-28T03:02:33;78417.78;;;-141.45;100.00
31403;BME280;18039;52.188;21.024;2023-01-28T03:07:34;78413.72;;;-141.45;100.00
31403;BME280;18039;52.188;21.024;2023-01-28T03:10:08;78413.72;;;-141.45;100.00
31403;BME280;18039;52.188;21.024;2023-01-28T03:12:38;78417.78;;;-141.45;100.00
31403;BME280;18039;52.188;21.024;2023-01-28T03:15:28;78413.72;;;-141.45;100.00
31403;BME280;18039;52.188;21.024;2023-01-28T03:18:20;78421.81;;;-141.45;100.00
31403;BME280;18039;52.188;21.024;2023-01-28T03:21:15;78425.88;;;-141.45;100.00
31403;BME280;18039;52.188;21.024;2023-01-28T03:24:14;78423.84;;;-141.45;100.00
31403;BME280;18039;52.188;21.024;2023-01-28T03:27:11;78421.81;;;-141.45;100.00
31403;BME280;18039;52.188;21.024;2023-01-28T03:30:16;78417.78;;;-141.45;100.00
31403;BME280;18039;52.188;21.024;2023-01-28T03:33:08;78429.94;;;-141.45;100.00
31403;BME280;18039;52.188;21.024;2023-01-28T03:35:54;78427.91;;;-141.45;100.00
31403;BME280;18039;52.188;21.024;2023-01-28T03:38:41;78425.88;;;-141.45;100.00
31403;BME280;18039;52.188;21.024;2023-01-28T03:41:23;78429.94;;;-141.45;100.00
31403;BME280;18039;52.188;21.024;2023-01-28T03:43:53;78425.88;;;-141.45;100.00
31403;BME280;18039;52.188;21.024;2023-01-28T03:46:21;78434.00;;;-141.45;100.00
31403;BME280;18039;52.188;21.024;2023-01-28T03:48:49;78421.81;;;-141.45;100.00
31403;BME280;18039;52.188;21.024;2023-01-28T03:51:16;78425.88;;;-141.45;100.00
31403;BME280;18039;52.188;21.024;2023-01-28T03:53:44;78425.88;;;-141.45;100.00
31403;BME280;18039;52.188;21.024;2023-01-28T03:56:11;78425.88;;;-141.45;100.00
31403;BME280;18039;52.188;21.024;2023-01-28T03:58:45;78425.88;;;-141.45;100.00
31403;BME280;18039;52.188;21.024;2023-01-28T04:01:19;78421.81;;;-141.45;100.00
31403;BME280;18039;52.188;21.024;2023-01-28T04:03:47;78442.09;;;-141.45;100.00
31403;BME280;18039;52.188;21.024;2023-01-28T04:06:18;78425.88;;;-141.45;100.00
31403;BME280;18039;52.188;21.024;2023-01-28T04:09:24;78421.81;;;-141.45;100.00
31403;BME280;18039;52.188;21.024;2023-01-28T04:12:01;78423.84;;;-141.45;100.00
31403;BME280;18039;52.188;21.024;2023-01-28T04:14:37;78417.78;;;-141.45;100.00
31403;BME280;18039;52.188;21.024;2023-01-28T04:17:10;78421.81;;;-141.45;99.81
31403;BME280;18039;52.188;21.024;2023-01-28T04:19:38;78423.84;;;-141.45;99.79
31403;BME280;18039;52.188;21.024;2023-01-28T04:22:09;78419.78;;;-141.45;99.64
31403;BME280;18039;52.188;21.024;2023-01-28T04:24:38;78421.81;;;-141.45;99.50
31403;BME280;18039;52.188;21.024;2023-01-28T04:27:05;78413.72;;;-141.45;99.05
31403;BME280;18039;52.188;21.024;2023-01-28T04:29:32;78421.81;;;-141.45;99.22
31403;BME280;18039;52.188;21.024;2023-01-28T04:32:16;78421.81;;;-141.45;99.09
31403;BME280;18039;52.188;21.024;2023-01-28T04:35:02;78415.75;;;-141.45;99.37
31403;BME280;18039;52.188;21.024;2023-01-28T04:37:46;78417.78;;;-141.45;99.29
31403;BME280;18039;52.188;21.024;2023-01-28T04:40:33;78421.81;;;-141.45;99.28
31403;BME280;18039;52.188;21.024;2023-01-28T04:43:08;78423.84;;;-141.45;99.30
31403;BME280;18039;52.188;21.024;2023-01-28T04:45:48;78431.97;;;-141.45;99.32
31403;BME280;18039;52.188;21.024;2023-01-28T04:48:33;78427.91;;;-141.45;99.58
31403;BME280;18039;52.188;21.024;2023-01-28T04:51:29;78425.88;;;-141.45;99.72
31403;BME280;18039;52.188;21.024;2023-01-28T04:54:22;78417.78;;;-141.45;99.55
31403;BME280;18039;52.188;21.024;2023-01-28T04:56:49;78421.81;;;-141.45;99.64
31403;BME280;18039;52.188;21.024;2023-01-28T04:59:17;78421.81;;;-141.45;99.79
31403;BME280;18039;52.188;21.024;2023-01-28T05:01:46;78421.81;;;-141.45;99.71
31403;BME280;18039;52.188;21.024;2023-01-28T05:04:13;78417.78;;;-141.45;99.40
31403;BME280;18039;52.188;21.024;2023-01-28T05:06:42;78417.78;;;-141.45;99.38
31403;BME280;18039;52.188;21.024;2023-01-28T05:09:15;78419.78;;;-141.45;99.27
31403;BME280;18039;52.188;21.024;2023-01-28T05:11:43;78417.78;;;-141.45;99.05
31403;BME280;18039;52.188;21.024;2023-01-28T05:14:10;78425.88;;;-141.45;98.92
31403;BME280;18039;52.188;21.024;2023-01-28T05:16:50;78429.94;;;-141.45;98.98
31403;BME280;18039;52.188;21.024;2023-01-28T05:19:18;78427.91;;;-141.45;98.79
31403;BME280;18039;52.188;21.024;2023-01-28T05:21:46;78425.88;;;-141.45;98.92
31403;BME280;18039;52.188;21.024;2023-01-28T05:24:29;78446.16;;;-141.45;98.72
31403;BME280;18039;52.188;21.024;2023-01-28T05:26:57;78427.91;;;-141.45;98.66
31403;BME280;18039;52.188;21.024;2023-01-28T05:29:24;78421.81;;;-141.45;99.12
31403;BME280;18039;52.188;21.024;2023-01-28T05:31:51;78425.88;;;-141.45;98.74
31403;BME280;18039;52.188;21.024;2023-01-28T05:34:18;78425.88;;;-141.45;98.58
31403;BME280;18039;52.188;21.024;2023-01-28T05:36:45;78425.88;;;-141.45;98.54
31403;BME280;18039;52.188;21.024;2023-01-28T05:39:28;78429.94;;;-141.45;98.46
31403;BME280;18039;52.188;21.024;2023-01-28T05:41:55;78434.00;;;-141.45;98.42
31403;BME280;18039;52.188;21.024;2023-01-28T05:44:22;78431.97;;;-141.45;98.93
31403;BME280;18039;52.188;21.024;2023-01-28T05:46:58;78429.94;;;-141.45;98.95
31403;BME280;18039;52.188;21.024;2023-01-28T05:49:51;78434.00;;;-141.45;99.00
31403;BME280;18039;52.188;21.024;2023-01-28T05:52:31;78434.00;;;-141.45;99.04
31403;BME280;18039;52.188;21.024;2023-01-28T05:54:58;78434.00;;;-141.45;99.24
31403;BME280;18039;52.188;21.024;2023-01-28T05:57:25;78438.06;;;-141.45;98.95
31403;BME280;18039;52.188;21.024;2023-01-28T05:59:52;78434.00;;;-141.45;99.14
31403;BME280;18039;52.188;21.024;2023-01-28T06:02:20;78438.06;;;-141.45;99.31
31403;BME280;18039;52.188;21.024;2023-01-28T06:04:51;78438.06;;;-141.45;99.41
31403;BME280;18039;52.188;21.024;2023-01-28T06:07:19;78438.06;;;-141.45;99.41
31403;BME280;18039;52.188;21.024;2023-01-28T06:09:47;78442.09;;;-141.45;99.69
31403;BME280;18039;52.188;21.024;2023-01-28T06:12:17;78446.16;;;-141.45;99.41
31403;BME280;18039;52.188;21.024;2023-01-28T06:14:59;78446.16;;;-141.45;99.38
31403;BME280;18039;52.188;21.024;2023-01-28T06:17:36;78454.28;;;-141.45;99.32
31403;BME280;18039;52.188;21.024;2023-01-28T06:20:13;78452.25;;;-141.45;99.51
31403;BME280;18039;52.188;21.024;2023-01-28T06:22:41;78454.28;;;-141.45;99.74
31403;BME280;18039;52.188;21.024;2023-01-28T06:25:08;78454.28;;;-141.45;99.79
31403;BME280;18039;52.188;21.024;2023-01-28T06:27:35;78450.22;;;-141.45;99.55
31403;BME280;18039;52.188;21.024;2023-01-28T06:30:03;78458.34;;;-141.45;99.35
31403;BME280;18039;52.188;21.024;2023-01-28T06:32:30;78454.28;;;-141.45;99.53
31403;BME280;18039;52.188;21.024;2023-01-28T06:34:58;78458.34;;;-141.45;100.00
31403;BME280;18039;52.188;21.024;2023-01-28T06:37:25;78460.38;;;-141.45;99.82
31403;BME280;18039;52.188;21.024;2023-01-28T06:39:52;78458.34;;;-141.45;100.00
31403;BME280;18039;52.188;21.024;2023-01-28T06:42:19;78456.31;;;-141.45;100.00
31403;BME280;18039;52.188;21.024;2023-01-28T06:44:46;78452.25;;;-141.45;100.00
31403;BME280;18039;52.188;21.024;2023-01-28T06:47:13;78458.34;;;-141.45;100.00
31403;BME280;18039;52.188;21.024;2023-01-28T06:49:41;78462.38;;;-141.45;100.00
31403;BME280;18039;52.188;21.024;2023-01-28T06:52:08;78454.28;;;-141.45;100.00
31403;BME280;18039;52.188;21.024;2023-01-28T06:54:35;78462.38;;;-141.45;100.00
31403;BME280;18039;52.188;21.024;2023-01-28T06:57:02;78458.34;;;-141.45;100.00
31403;BME280;18039;52.188;21.024;2023-01-28T06:59:29;78470.50;;;-141.45;100.00
31403;BME280;18039;52.188;21.024;2023-01-28T07:01:56;78474.56;;;-141.45;100.00
31403;BME280;18039;52.188;21.024;2023-01-28T07:04:23;78470.50;;;-141.45;100.00
31403;BME280;18039;52.188;21.024;2023-01-28T07:06:50;78470.50;;;-141.45;100.00
31403;BME280;18039;52.188;21.024;2023-01-28T07:09:17;78470.50;;;-141.45;100.00
31403;BME280;18039;52.188;21.024;2023-01-28T07:11:44;78470.50;;;-141.45;100.00
31403;BME280;18039;52.188;21.024;2023-01-28T07:14:11;78478.63;;;-141.45;100.00
31403;BME280;18039;52.188;21.024;2023-01-28T07:16:38;78462.38;;;-141.45;100.00
31403;BME280;18039;52.188;21.024;2023-01-28T07:19:05;78466.44;;;-141.45;100.00
31403;BME280;18039;52.188;21.024;2023-01-28T07:21:33;78466.44;;;-141.45;100.00
31403;BME280;18039;52.188;21.024;2023-01-28T07:23:59;78462.38;;;-141.45;100.00
31403;BME280;18039;52.188;21.024;2023-01-28T07:26:27;78462.38;;;-141.45;100.00
31403;BME280;18039;52.188;21.024;2023-01-28T07:28:54;78462.38;;;-141.45;100.00
31403;BME280;18039;52.188;21.024;2023-01-28T07:31:21;78462.38;;;-141.45;100.00
31403;BME280;18039;52.188;21.024;2023-01-28T07:33:48;78466.44;;;-141.45;100.00
31403;BME280;18039;52.188;21.024;2023-01-28T07:36:15;78466.44;;;-141.45;100.00
31403;BME280;18039;52.188;21.024;2023-01-28T07:38:42;78460.38;;;-141.45;100.00
31403;BME280;18039;52.188;21.024;2023-01-28T07:41:10;78462.38;;;-141.45;100.00
31403;BME280;18039;52.188;21.024;2023-01-28T07:43:37;78492.81;;;-141.45;100.00
31403;BME280;18039;52.188;21.024;2023-01-28T07:46:04;78458.34;;;-141.45;100.00
31403;BME280;18039;52.188;21.024;2023-01-28T07:48:31;78460.38;;;-141.45;100.00
31403;BME280;18039;52.188;21.024;2023-01-28T07:50:58;78456.31;;;-141.45;100.00
31403;BME280;18039;52.188;21.024;2023-01-28T07:53:26;78454.28;;;-141.45;100.00
31403;BME280;18039;52.188;21.024;2023-01-28T07:56:02;78454.28;;;-141.45;100.00
31403;BME280;18039;52.188;21.024;2023-01-28T07:58:30;78458.34;;;-141.45;100.00
31403;BME280;18039;52.188;21.024;2023-01-28T08:01:00;78454.28;;;-141.45;100.00
31403;BME280;18039;52.188;21.024;2023-01-28T08:03:28;78454.28;;;-141.45;100.00
31403;BME280;18039;52.188;21.024;2023-01-28T08:05:56;78454.28;;;-141.45;100.00
31403;BME280;18039;52.188;21.024;2023-01-28T08:08:25;78454.28;;;-141.45;100.00
31403;BME280;18039;52.188;21.024;2023-01-28T08:10:53;78448.19;;;-141.45;100.00
31403;BME280;18039;52.188;21.024;2023-01-28T08:13:20;78446.16;;;-141.45;100.00
31403;BME280;18039;52.188;21.024;2023-01-28T08:15:47;78442.09;;;-141.45;100.00
31403;BME280;18039;52.188;21.024;2023-01-28T08:18:15;78442.09;;;-141.45;100.00
31403;BME280;18039;52.188;21.024;2023-01-28T08:20:43;78448.19;;;-141.45;100.00
31403;BME280;18039;52.188;21.024;2023-01-28T08:23:18;78446.16;;;-141.45;100.00
31403;BME280;18039;52.188;21.024;2023-01-28T08:25:46;78458.34;;;-141.45;100.00
31403;BME280;18039;52.188;21.024;2023-01-28T08:28:14;78450.22;;;-141.45;99.86
31403;BME280;18039;52.188;21.024;2023-01-28T08:30:43;78450.22;;;-141.45;100.00
31403;BME280;18039;52.188;21.024;2023-01-28T08:33:12;78452.25;;;-141.45;100.00
31403;BME280;18039;52.188;21.024;2023-01-28T08:35:40;78446.16;;;-141.45;99.85
31403;BME280;18039;52.188;21.024;2023-01-28T08:38:07;78452.25;;;-141.45;100.00
31403;BME280;18039;52.188;21.024;2023-01-28T08:40:35;78446.16;;;-141.45;100.00
31403;BME280;18039;52.188;21.024;2023-01-28T08:43:02;78450.22;;;-141.45;100.00
31403;BME280;18039;52.188;21.024;2023-01-28T08:45:30;78454.28;;;-141.45;99.98
31403;BME280;18039;52.188;21.024;2023-01-28T08:48:02;78454.28;;;-141.45;99.55
31403;BME280;18039;52.188;21.024;2023-01-28T08:50:35;78448.19;;;-141.45;99.22
31403;BME280;18039;52.188;21.024;2023-01-28T08:53:05;78450.22;;;-141.45;99.00
31403;BME280;18039;52.188;21.024;2023-01-28T08:55:33;78450.22;;;-141.45;98.84
31403;BME280;18039;52.188;21.024;2023-01-28T08:58:02;78454.28;;;-141.45;99.12
31403;BME280;18039;52.188;21.024;2023-01-28T09:00:30;78458.34;;;-141.45;98.98
31403;BME280;18039;52.188;21.024;2023-01-28T09:02:57;78454.28;;;-141.45;99.02
31403;BME280;18039;52.188;21.024;2023-01-28T09:05:24;78458.34;;;-141.45;98.84
31403;BME280;18039;52.188;21.024;2023-01-28T09:07:51;78458.34;;;-141.45;99.17
31403;BME280;18039;52.188;21.024;2023-01-28T09:10:18;78460.38;;;-141.45;99.21
31403;BME280;18039;52.188;21.024;2023-01-28T09:12:48;78466.44;;;-141.45;98.77
31403;BME280;18039;52.188;21.024;2023-01-28T09:15:16;78474.56;;;-141.45;99.27
31403;BME280;18039;52.188;21.024;2023-01-28T09:17:43;78478.63;;;-141.45;99.50
31403;BME280;18039;52.188;21.024;2023-01-28T09:20:10;78472.53;;;-141.45;99.66
31403;BME280;18039;52.188;21.024;2023-01-28T09:22:39;78470.50;;;-141.45;99.48
31403;BME280;18039;52.188;21.024;2023-01-28T09:25:06;78470.50;;;-141.45;99.41
31403;BME280;18039;52.188;21.024;2023-01-28T09:27:34;78478.63;;;-141.45;99.91
31403;BME280;18039;52.188;21.024;2023-01-28T09:30:01;78478.63;;;-141.45;99.99
31403;BME280;18039;52.188;21.024;2023-01-28T09:32:28;78482.66;;;-141.45;100.00
31403;BME280;18039;52.188;21.024;2023-01-28T09:34:57;78486.72;;;-141.45;100.00
31403;BME280;18039;52.188;21.024;2023-01-28T09:37:24;78482.66;;;-141.45;100.00
31403;BME280;18039;52.188;21.024;2023-01-28T09:39:51;78486.72;;;-141.45;100.00
31403;BME280;18039;52.188;21.024;2023-01-28T09:45:22;78496.88;;;-141.45;100.00
31403;BME280;18039;52.188;21.024;2023-01-28T09:48:02;78494.84;;;-141.45;100.00
31403;BME280;18039;52.188;21.024;2023-01-28T09:50:36;78490.78;;;-141.45;100.00
31403;BME280;18039;52.188;21.024;2023-01-28T09:55:43;78486.72;;;-141.45;100.00
31403;BME280;18039;52.188;21.024;2023-01-28T09:58:13;78482.66;;;-141.45;100.00
31403;BME280;18039;52.188;21.024;2023-01-28T10:03:40;78486.72;;;-141.45;100.00
31403;BME280;18039;52.188;21.024;2023-01-28T10:06:20;78482.66;;;-141.45;100.00
31403;BME280;18039;52.188;21.024;2023-01-28T10:14:12;78466.44;;;-141.45;100.00
31403;BME280;18039;52.188;21.024;2023-01-28T10:17:06;78462.38;;;-141.45;100.00
31403;BME280;18039;52.188;21.024;2023-01-28T10:22:57;78458.34;;;-141.45;100.00
31403;BME280;18039;52.188;21.024;2023-01-28T10:25:29;78458.34;;;-141.45;100.00
31403;BME280;18039;52.188;21.024;2023-01-28T10:28:00;78454.28;;;-141.45;100.00
31403;BME280;18039;52.188;21.024;2023-01-28T10:30:31;78462.38;;;-141.45;100.00
31403;BME280;18039;52.188;21.024;2023-01-28T10:33:04;78462.38;;;-141.45;100.00
31403;BME280;18039;52.188;21.024;2023-01-28T10:35:37;78462.38;;;-141.45;100.00
31403;BME280;18039;52.188;21.024;2023-01-28T10:38:08;78450.22;;;-141.45;100.00
31403;BME280;18039;52.188;21.024;2023-01-28T10:40:36;78454.28;;;-141.45;100.00
31403;BME280;18039;52.188;21.024;2023-01-28T10:43:03;78460.38;;;-141.45;100.00
31403;BME280;18039;52.188;21.024;2023-01-28T10:45:40;78454.28;;;-141.45;100.00
31403;BME280;18039;52.188;21.024;2023-01-28T10:50:50;78446.16;;;-141.45;100.00
31403;BME280;18039;52.188;21.024;2023-01-28T10:53:18;78442.09;;;-141.45;99.93
31403;BME280;18039;52.188;21.024;2023-01-28T10:55:55;78442.09;;;-141.45;99.98
31403;BME280;18039;52.188;21.024;2023-01-28T10:58:26;78450.22;;;-141.45;100.00
31403;BME280;18039;52.188;21.024;2023-01-28T11:00:59;78442.09;;;-141.45;99.38
31403;BME280;18039;52.188;21.024;2023-01-28T11:03:27;78452.25;;;-141.45;99.44
31403;BME280;18039;52.188;21.024;2023-01-28T11:05:57;78446.16;;;-141.45;99.47
31403;BME280;18039;52.188;21.024;2023-01-28T11:08:27;78450.22;;;-141.45;99.14
31403;BME280;18039;52.188;21.024;2023-01-28T11:10:55;78450.22;;;-141.45;99.38
31403;BME280;18039;52.188;21.024;2023-01-28T11:13:25;78450.22;;;-141.45;99.90
31403;BME280;18039;52.188;21.024;2023-01-28T11:15:58;78442.09;;;-141.45;99.14
31403;BME280;18039;52.188;21.024;2023-01-28T11:18:30;78438.06;;;-141.45;99.52
31403;BME280;18039;52.188;21.024;2023-01-28T11:21:03;78442.09;;;-141.45;99.38
31403;BME280;18039;52.188;21.024;2023-01-28T11:23:50;78438.06;;;-141.45;99.55
31403;BME280;18039;52.188;21.024;2023-01-28T11:26:21;78429.94;;;-141.45;99.22
31403;BME280;18039;52.188;21.024;2023-01-28T11:28:49;78425.88;;;-141.45;99.64
31403;BME280;18039;52.188;21.024;2023-01-28T11:31:18;78427.91;;;-141.45;98.66
31403;BME280;18039;52.188;21.024;2023-01-28T11:33:57;78436.03;;;-141.45;98.54
31403;BME280;18039;52.188;21.024;2023-01-28T11:36:27;78434.00;;;-141.45;98.48
31403;BME280;18039;52.188;21.024;2023-01-28T11:39:01;78429.94;;;-141.45;98.44
31403;BME280;18039;52.188;21.024;2023-01-28T11:41:36;78425.88;;;-141.45;98.94
31403;BME280;18039;52.188;21.024;2023-01-28T11:44:15;78421.81;;;-141.45;98.71
31403;BME280;18039;52.188;21.024;2023-01-28T11:47:12;78413.72;;;-141.45;98.38
31403;BME280;18039;52.188;21.024;2023-01-28T11:55:40;78423.84;;;-141.45;97.93
31403;BME280;18039;52.188;21.024;2023-01-28T12:11:56;78421.81;;;-141.45;96.16
31403;BME280;18039;52.188;21.024;2023-01-28T12:23:23;78429.94;;;-141.45;97.38
31403;BME280;18039;52.188;21.024;2023-01-28T12:26:40;78425.88;;;-141.45;97.59
31403;BME280;18039;52.188;21.024;2023-01-28T12:38:33;78421.81;;;-141.45;97.33
31403;BME280;18039;52.188;21.024;2023-01-28T12:41:03;78425.88;;;-141.45;97.59
31403;BME280;18039;52.188;21.024;2023-01-28T12:46:47;78434.00;;;-141.45;96.47
31403;BME280;18039;52.188;21.024;2023-01-28T12:49:28;78434.00;;;-141.45;96.32
31403;BME280;18039;52.188;21.024;2023-01-28T12:52:26;78442.09;;;-141.45;96.53
31403;BME280;18039;52.188;21.024;2023-01-28T12:57:31;78454.28;;;-141.45;96.18
31403;BME280;18039;52.188;21.024;2023-01-28T13:00:19;78454.28;;;-141.45;96.47
31403;BME280;18039;52.188;21.024;2023-01-28T13:05:48;78450.22;;;-141.45;97.35
31403;BME280;18039;52.188;21.024;2023-01-28T13:08:26;78446.16;;;-141.45;97.54
31403;BME280;18039;52.188;21.024;2023-01-28T13:10:56;78438.06;;;-141.45;97.61
31403;BME280;18039;52.188;21.024;2023-01-28T13:13:37;78438.06;;;-141.45;97.75
31403;BME280;18039;52.188;21.024;2023-01-28T13:16:07;78434.00;;;-141.45;98.16
31403;BME280;18039;52.188;21.024;2023-01-28T13:21:11;78429.94;;;-141.45;98.33
31403;BME280;18039;52.188;21.024;2023-01-28T13:23:47;78429.94;;;-141.45;97.43
31403;BME280;18039;52.188;21.024;2023-01-28T13:28:48;78434.00;;;-141.45;97.32
31403;BME280;18039;52.188;21.024;2023-01-28T13:31:22;78425.88;;;-141.45;96.73
31403;BME280;18039;52.188;21.024;2023-01-28T13:41:53;78444.13;;;-141.45;95.88
31403;BME280;18039;52.188;21.024;2023-01-28T13:44:33;78442.09;;;-141.45;95.79
31403;BME280;18039;52.188;21.024;2023-01-28T13:49:43;78450.22;;;-141.45;96.28
31403;BME280;18039;52.188;21.024;2023-01-28T13:52:15;78442.09;;;-141.45;95.81
31403;BME280;18039;52.188;21.024;2023-01-28T14:06:24;78450.22;;;-141.45;95.57
31403;BME280;18039;52.188;21.024;2023-01-28T14:12:31;78446.16;;;-141.45;96.71
31403;BME280;18039;52.188;21.024;2023-01-28T14:17:45;78446.16;;;-141.45;96.18
31403;BME280;18039;52.188;21.024;2023-01-28T14:20:29;78450.22;;;-141.45;96.53
31403;BME280;18039;52.188;21.024;2023-01-28T14:23:01;78448.19;;;-141.45;97.11
31403;BME280;18039;52.188;21.024;2023-01-28T14:25:55;78446.16;;;-141.45;96.75
31403;BME280;18039;52.188;21.024;2023-01-28T14:31:33;78434.00;;;-141.45;96.62
31403;BME280;18039;52.188;21.024;2023-01-28T14:34:23;78438.06;;;-141.45;95.82
31403;BME280;18039;52.188;21.024;2023-01-28T14:36:55;78434.00;;;-141.45;94.70
31403;BME280;18039;52.188;21.024;2023-01-28T14:39:28;78434.00;;;-141.45;95.35
31403;BME280;18039;52.188;21.024;2023-01-28T14:42:00;78434.00;;;-141.45;95.27
31403;BME280;18039;52.188;21.024;2023-01-28T14:44:35;78434.00;;;-141.45;94.40
31403;BME280;18039;52.188;21.024;2023-01-28T14:58:32;78442.09;;;-141.45;91.33
31403;BME280;18039;52.188;21.024;2023-01-28T15:01:02;78446.16;;;-141.45;91.28
31403;BME280;18039;52.188;21.024;2023-01-28T15:03:29;78446.16;;;-141.45;91.35
31403;BME280;18039;52.188;21.024;2023-01-28T15:08:32;78442.09;;;-141.45;90.72
31403;BME280;18039;52.188;21.024;2023-01-28T15:11:00;78446.16;;;-141.45;90.30